createdAt,value
2017-12-06T00:01:33.534Z,12.23
2017-12-06T00:06:34.298Z,9.97
2017-12-06T00:11:35.105Z,13.00
2017-12-06T00:16:35.879Z,11.90
2017-12-06T00:21:36.657Z,10.20
2017-12-06T00:26:37.458Z,10.43
2017-12-06T00:31:38.219Z,9.20
2017-12-06T00:36:39.028Z,12.00
2017-12-06T00:41:39.797Z,11.63
2017-12-06T00:46:40.573Z,10.30
2017-12-06T00:51:41.362Z,9.87
2017-12-06T00:56:42.146Z,10.60
2017-12-06T01:01:42.929Z,11.37
2017-12-06T01:06:43.706Z,9.17
2017-12-06T01:11:44.522Z,14.13
2017-12-06T01:16:45.285Z,10.57
2017-12-06T01:21:46.065Z,9.80
2017-12-06T01:26:46.852Z,10.67
2017-12-06T01:31:47.626Z,10.00
2017-12-06T01:36:48.390Z,11.23
2017-12-06T01:41:49.149Z,11.50
2017-12-06T01:46:49.925Z,9.63
2017-12-06T01:51:50.706Z,11.40
2017-12-06T01:56:51.494Z,10.47
2017-12-06T02:01:52.265Z,10.07
2017-12-06T02:06:53.029Z,11.87
2017-12-06T02:11:53.801Z,11.57
2017-12-06T02:16:54.587Z,10.50
2017-12-06T02:21:55.353Z,10.23
2017-12-06T02:26:56.134Z,8.43
2017-12-06T02:31:56.917Z,9.33
2017-12-06T02:36:57.726Z,9.23
2017-12-06T02:42:10.943Z,8.43
2017-12-06T02:47:11.735Z,8.23
2017-12-06T02:52:12.523Z,11.13
2017-12-06T02:57:13.309Z,12.67
2017-12-06T03:02:14.106Z,8.77
2017-12-06T03:07:14.921Z,8.30
2017-12-06T03:12:15.710Z,8.93
2017-12-06T03:17:16.502Z,7.73
2017-12-06T03:22:17.265Z,10.20
2017-12-06T03:27:18.071Z,8.83
2017-12-06T03:32:21.964Z,8.47
2017-12-06T03:37:22.818Z,9.53
2017-12-06T03:42:23.600Z,8.83
2017-12-06T03:47:24.386Z,9.87
2017-12-06T03:52:25.187Z,8.70
2017-12-06T03:57:25.996Z,11.47
2017-12-06T04:02:26.757Z,9.87
2017-12-06T04:07:27.534Z,10.50
2017-12-06T04:12:31.541Z,11.50
2017-12-06T04:17:32.325Z,10.70
2017-12-06T04:22:33.095Z,12.10
2017-12-06T04:27:33.876Z,11.90
2017-12-06T04:32:34.646Z,10.50
2017-12-06T04:37:35.405Z,9.07
2017-12-06T04:42:36.202Z,10.33
2017-12-06T04:47:36.976Z,9.13
2017-12-06T04:52:37.734Z,11.63
2017-12-06T04:57:38.505Z,12.50
2017-12-06T05:02:39.288Z,11.17
2017-12-06T05:07:40.061Z,10.80
2017-12-06T05:12:40.812Z,9.80
2017-12-06T05:17:41.610Z,9.73
2017-12-06T05:22:42.356Z,13.80
2017-12-06T05:27:44.027Z,10.43
2017-12-06T05:32:44.818Z,9.27
2017-12-06T05:37:45.585Z,10.37
2017-12-06T05:42:46.375Z,9.40
2017-12-06T05:47:47.162Z,10.90
2017-12-06T05:52:47.935Z,11.47
2017-12-06T05:57:48.702Z,9.00
2017-12-06T06:02:49.493Z,8.87
2017-12-06T06:07:50.239Z,12.90
2017-12-06T06:12:51.006Z,8.97
2017-12-06T06:17:52.782Z,9.60
2017-12-06T06:22:53.532Z,10.30
2017-12-06T06:27:54.319Z,9.97
2017-12-06T06:32:55.164Z,10.13
2017-12-06T06:37:55.925Z,9.23
2017-12-06T06:42:56.690Z,8.43
2017-12-06T06:47:57.465Z,11.80
2017-12-06T06:52:58.243Z,9.20
2017-12-06T06:58:09.746Z,10.43
2017-12-06T07:03:10.606Z,8.40
2017-12-06T07:08:14.765Z,10.27
2017-12-06T07:13:15.553Z,9.17
2017-12-06T07:18:23.621Z,7.93
2017-12-06T07:23:24.414Z,8.40
2017-12-06T07:28:25.229Z,7.10
2017-12-06T07:33:26.032Z,9.37
2017-12-06T07:38:26.857Z,8.27
2017-12-06T07:43:27.645Z,6.80
2017-12-06T07:48:28.481Z,6.17
2017-12-06T07:53:29.286Z,8.20
2017-12-06T07:58:45.380Z,6.97
2017-12-06T08:03:56.769Z,5.60
2017-12-06T08:08:57.540Z,11.10
2017-12-06T08:14:08.787Z,8.00
2017-12-06T08:19:09.642Z,6.60
2017-12-06T08:24:13.840Z,7.40
2017-12-06T08:29:14.637Z,8.60
2017-12-06T08:34:15.389Z,9.20
2017-12-06T08:39:16.185Z,12.93
2017-12-06T08:44:17.774Z,13.83
2017-12-06T08:49:18.758Z,10.80
2017-12-06T08:54:19.545Z,11.63
2017-12-06T08:59:20.645Z,12.83
2017-12-06T09:04:21.412Z,16.50
2017-12-06T09:09:22.438Z,16.07
2017-12-06T09:14:23.249Z,13.73
2017-12-06T09:19:24.103Z,13.17
2017-12-06T09:24:24.992Z,16.93
2017-12-06T09:29:25.865Z,14.17
2017-12-06T09:34:26.696Z,13.03
2017-12-06T09:39:27.497Z,15.77
2017-12-06T09:44:28.254Z,15.13
2017-12-06T09:49:32.694Z,13.40
2017-12-06T09:54:34.551Z,15.00
2017-12-06T09:59:35.303Z,14.63
2017-12-06T10:04:39.302Z,16.63
2017-12-06T10:09:40.082Z,14.40
2017-12-06T10:14:41.859Z,13.13
2017-12-06T10:19:42.662Z,14.30
2017-12-06T10:24:43.442Z,13.40
2017-12-06T10:29:55.007Z,13.33
2017-12-06T10:34:55.794Z,12.60
2017-12-06T10:40:08.694Z,11.70
2017-12-06T10:45:17.796Z,11.60
2017-12-06T10:50:18.584Z,11.87
2017-12-06T10:55:19.401Z,10.43
2017-12-06T11:00:28.370Z,10.50
2017-12-06T11:05:29.162Z,10.17
2017-12-06T11:10:36.539Z,10.20
2017-12-06T11:15:37.368Z,13.80
2017-12-06T11:20:38.099Z,8.80
2017-12-06T11:25:38.883Z,9.07
2017-12-06T11:30:39.659Z,10.57
2017-12-06T11:35:44.437Z,13.70
2017-12-06T11:40:45.221Z,9.50
2017-12-06T11:45:46.026Z,8.07
2017-12-06T11:50:46.832Z,9.77
2017-12-06T11:56:06.978Z,9.53
2017-12-06T12:01:07.751Z,9.30
2017-12-06T12:06:08.514Z,10.70
2017-12-06T12:11:29.862Z,10.00
2017-12-06T12:16:30.658Z,11.07
2017-12-06T12:21:31.428Z,11.73
2017-12-06T12:26:32.211Z,11.67
2017-12-06T12:37:14.830Z,7.87
2017-12-06T12:42:15.652Z,8.07
2017-12-06T12:47:26.485Z,8.30
2017-12-06T12:52:27.338Z,8.60
2017-12-06T12:57:28.078Z,8.00
2017-12-06T13:02:28.895Z,9.80
2017-12-06T13:07:35.801Z,8.03
2017-12-06T13:12:54.282Z,7.13
2017-12-06T13:17:55.096Z,7.80
2017-12-06T13:23:12.925Z,6.90
2017-12-06T13:28:35.083Z,9.50
2017-12-06T13:33:48.295Z,7.40
2017-12-06T13:39:13.001Z,7.30
2017-12-06T13:44:29.393Z,6.37
2017-12-06T13:49:30.174Z,8.57
2017-12-06T13:59:59.289Z,5.10
2017-12-06T14:05:00.115Z,7.87
2017-12-06T14:10:04.249Z,6.47
2017-12-06T14:15:05.048Z,4.57
2017-12-06T14:20:11.986Z,4.70
2017-12-06T14:25:19.958Z,6.50
2017-12-06T14:36:13.336Z,5.60
2017-12-06T14:41:15.061Z,6.63
2017-12-06T14:46:15.835Z,6.17
2017-12-06T14:56:48.572Z,6.43
2017-12-06T15:01:49.363Z,5.40
2017-12-06T15:06:50.177Z,6.10
2017-12-06T15:11:51.010Z,6.90
2017-12-06T15:16:51.787Z,6.47
2017-12-06T15:21:59.512Z,5.50
2017-12-06T15:27:00.346Z,6.30
2017-12-06T15:32:01.160Z,7.47
2017-12-06T15:37:03.949Z,6.90
2017-12-06T15:42:07.736Z,6.50
2017-12-06T15:47:08.536Z,7.07
2017-12-06T15:52:12.727Z,7.57
2017-12-06T15:57:17.509Z,6.50
2017-12-06T16:02:20.349Z,6.70
2017-12-06T16:07:21.133Z,11.07
2017-12-06T16:12:22.937Z,7.10
2017-12-06T16:17:28.033Z,6.97
2017-12-06T16:22:28.826Z,9.20
2017-12-06T16:27:30.577Z,7.90
2017-12-06T16:32:31.345Z,6.40
2017-12-06T16:37:32.138Z,7.13
2017-12-06T16:42:33.193Z,8.20
2017-12-06T16:47:37.260Z,7.50
2017-12-06T16:52:38.098Z,7.80
2017-12-06T16:57:38.884Z,7.17
2017-12-06T17:02:39.714Z,6.30
2017-12-06T17:07:40.491Z,7.30
2017-12-06T17:12:49.525Z,7.10
2017-12-06T17:17:50.355Z,7.10
2017-12-06T17:22:51.203Z,7.27
2017-12-06T17:27:52.009Z,8.80
2017-12-06T17:32:52.834Z,9.17
2017-12-06T17:37:53.625Z,8.00
2017-12-06T17:42:54.413Z,9.23
2017-12-06T17:47:55.254Z,8.67
2017-12-06T17:52:56.061Z,8.80
2017-12-06T17:57:56.853Z,10.80
2017-12-06T18:02:57.657Z,10.10
2017-12-06T18:07:58.457Z,7.37
2017-12-06T18:12:59.246Z,9.37
2017-12-06T18:18:00.062Z,8.77
2017-12-06T18:23:00.870Z,8.13
2017-12-06T18:28:01.642Z,8.40
2017-12-06T18:33:02.434Z,9.87
2017-12-06T18:38:03.214Z,8.37
2017-12-06T18:43:03.991Z,10.13
2017-12-06T18:48:04.798Z,7.23
2017-12-06T18:53:05.581Z,6.50
2017-12-06T18:58:06.366Z,6.57
2017-12-06T19:03:07.147Z,6.77
2017-12-06T19:08:07.942Z,7.17
2017-12-06T19:13:08.730Z,6.13
2017-12-06T19:18:09.515Z,6.00
2017-12-06T19:23:11.422Z,7.03
2017-12-06T19:28:12.162Z,7.57
2017-12-06T19:33:12.994Z,5.90
2017-12-06T19:38:13.777Z,5.00
2017-12-06T19:43:14.557Z,6.70
2017-12-06T19:48:15.337Z,5.80
2017-12-06T19:53:16.129Z,6.10
2017-12-06T19:58:16.906Z,5.93
2017-12-06T20:03:17.673Z,7.87
2017-12-06T20:08:18.454Z,9.60
2017-12-06T20:13:19.230Z,9.10
2017-12-06T20:18:20.047Z,8.13
2017-12-06T20:23:20.875Z,7.80
2017-12-06T20:28:21.758Z,9.03
2017-12-06T20:33:22.541Z,8.60
2017-12-06T20:38:23.322Z,9.57
2017-12-06T20:43:24.118Z,9.43
2017-12-06T20:48:31.570Z,11.07
2017-12-06T20:53:32.370Z,12.47
2017-12-06T20:58:40.192Z,8.33
2017-12-06T21:03:40.983Z,8.13
2017-12-06T21:08:42.781Z,7.93
2017-12-06T21:13:43.559Z,8.37
2017-12-06T21:18:51.355Z,7.43
2017-12-06T21:23:52.142Z,9.13
2017-12-06T21:28:52.942Z,9.40
2017-12-06T21:33:53.762Z,8.47
2017-12-06T21:38:58.283Z,7.53
2017-12-06T21:43:59.095Z,11.27
2017-12-06T21:48:59.898Z,7.43
2017-12-06T21:54:00.701Z,8.60
2017-12-06T21:59:07.833Z,8.93
2017-12-06T22:04:08.625Z,6.93
2017-12-06T22:09:09.416Z,6.57
2017-12-06T22:14:10.180Z,6.20
2017-12-06T22:19:10.953Z,7.37
2017-12-06T22:24:11.785Z,7.27
2017-12-06T22:29:15.825Z,6.10
2017-12-06T22:34:16.621Z,7.37
2017-12-06T22:39:17.442Z,7.10
2017-12-06T22:44:18.553Z,7.60
2017-12-06T22:49:19.338Z,8.00
2017-12-06T22:54:20.122Z,9.87
2017-12-06T22:59:21.031Z,7.47
2017-12-06T23:04:21.837Z,8.90
2017-12-06T23:09:25.887Z,7.70
2017-12-06T23:14:26.682Z,7.83
2017-12-06T23:19:27.449Z,8.37
2017-12-06T23:24:28.222Z,8.07
2017-12-06T23:29:29.005Z,8.37
2017-12-06T23:34:29.816Z,8.03
2017-12-06T23:39:30.598Z,8.20
2017-12-06T23:44:31.382Z,9.37
2017-12-06T23:49:32.214Z,8.90
2017-12-06T23:54:32.970Z,9.10
2017-12-06T23:59:33.773Z,8.83
